createdAt,value
2018-01-15T00:02:15.577Z,12.30
2018-01-15T00:04:43.157Z,11.87
2018-01-15T00:07:10.806Z,13.30
2018-01-15T00:09:38.380Z,11.80
2018-01-15T00:12:05.936Z,12.67
2018-01-15T00:14:33.511Z,12.53
2018-01-15T00:17:01.065Z,11.93
2018-01-15T00:19:28.671Z,10.53
2018-01-15T00:21:57.035Z,10.23
2018-01-15T00:24:24.638Z,12.30
2018-01-15T00:26:52.208Z,13.27
2018-01-15T00:29:19.800Z,10.73
2018-01-15T00:31:47.380Z,12.27
2018-01-15T00:34:14.941Z,11.60
2018-01-15T00:36:42.520Z,13.13
2018-01-15T00:39:10.857Z,12.10
2018-01-15T00:41:38.438Z,11.83
2018-01-15T00:44:06.035Z,13.27
2018-01-15T00:46:33.659Z,12.77
2018-01-15T00:49:01.217Z,12.60
2018-01-15T00:51:28.806Z,11.67
2018-01-15T00:53:57.163Z,9.70
2018-01-15T00:56:25.909Z,12.30
2018-01-15T00:58:53.508Z,12.00
2018-01-15T01:43:34.509Z,12.13
2018-01-15T01:46:02.848Z,11.90
2018-01-15T01:48:30.401Z,12.67
2018-01-15T01:50:57.996Z,12.37
2018-01-15T01:53:26.347Z,12.97
2018-01-15T01:55:53.937Z,12.53
2018-01-15T01:58:22.278Z,13.13
2018-01-15T02:00:49.852Z,11.97
2018-01-15T02:03:17.436Z,12.47
2018-01-15T02:05:45.813Z,13.33
2018-01-15T02:08:13.371Z,10.80
2018-01-15T02:10:40.962Z,11.80
2018-01-15T02:13:08.544Z,12.07
2018-01-15T02:15:36.110Z,13.40
2018-01-15T02:18:03.733Z,12.50
2018-01-15T02:20:32.058Z,11.50
2018-01-15T02:22:59.642Z,12.60
2018-01-15T02:25:27.192Z,11.80
2018-01-15T02:27:54.821Z,12.10
2018-01-15T02:30:22.394Z,10.57
2018-01-15T02:32:49.997Z,11.10
2018-01-15T02:35:17.594Z,11.70
2018-01-15T02:37:45.145Z,14.17
2018-01-15T02:40:12.725Z,13.00
2018-01-15T02:42:40.322Z,12.63
2018-01-15T02:45:07.917Z,14.00
2018-01-15T02:47:36.351Z,15.73
2018-01-15T02:50:04.693Z,13.47
2018-01-15T02:52:33.032Z,12.83
2018-01-15T02:55:00.638Z,14.23
2018-01-15T02:57:28.347Z,11.43
2018-01-15T02:59:55.904Z,11.47
2018-01-15T03:02:23.486Z,13.77
2018-01-15T03:04:51.081Z,13.10
2018-01-15T03:07:18.665Z,13.50
2018-01-15T03:09:47.238Z,11.70
2018-01-15T03:12:14.797Z,12.90
2018-01-15T03:14:42.368Z,14.43
2018-01-15T03:17:09.966Z,12.20
2018-01-15T03:19:37.535Z,11.60
2018-01-15T03:22:05.102Z,12.17
2018-01-15T03:24:33.457Z,12.17
2018-01-15T03:27:01.046Z,12.93
2018-01-15T03:29:29.403Z,11.40
2018-01-15T03:31:56.981Z,13.27
2018-01-15T03:34:24.539Z,12.53
2018-01-15T03:36:52.097Z,14.10
2018-01-15T03:39:19.665Z,13.03
2018-01-15T03:41:48.053Z,14.47
2018-01-15T03:44:16.380Z,13.80
2018-01-15T03:46:43.980Z,12.63
2018-01-15T03:49:12.312Z,12.33
2018-01-15T03:51:39.917Z,14.00
2018-01-15T03:54:07.486Z,12.40
2018-01-15T03:56:35.040Z,13.00
2018-01-15T03:59:02.619Z,15.03
2018-01-15T04:01:30.958Z,12.67
2018-01-15T04:03:58.532Z,13.27
2018-01-15T04:06:26.092Z,13.83
2018-01-15T04:08:53.725Z,12.03
2018-01-15T04:11:21.300Z,11.47
2018-01-15T04:13:48.876Z,12.80
2018-01-15T04:16:16.465Z,12.77
2018-01-15T04:18:44.808Z,13.50
2018-01-15T04:21:12.380Z,12.77
2018-01-15T04:23:39.957Z,12.40
2018-01-15T04:26:08.473Z,12.60
2018-01-15T04:28:36.073Z,12.87
2018-01-15T04:31:03.649Z,13.57
2018-01-15T04:33:31.401Z,13.07
2018-01-15T04:35:58.959Z,11.57
2018-01-15T04:38:26.524Z,13.83
2018-01-15T04:40:54.156Z,13.40
2018-01-15T04:43:22.493Z,13.53
2018-01-15T04:45:50.833Z,12.97
2018-01-15T04:48:18.427Z,13.77
2018-01-15T04:50:45.995Z,13.27
2018-01-15T04:53:14.311Z,12.23
2018-01-15T04:55:41.890Z,13.00
2018-01-15T04:58:09.447Z,13.27
2018-01-15T05:00:37.056Z,12.30
2018-01-15T05:03:05.432Z,11.83
2018-01-15T05:05:33.846Z,12.60
2018-01-15T05:08:01.407Z,13.30
2018-01-15T05:10:34.958Z,12.60
2018-01-15T05:13:02.623Z,11.70
2018-01-15T05:15:30.197Z,12.40
2018-01-15T05:17:58.637Z,12.57
2018-01-15T05:20:26.229Z,12.17
2018-01-15T05:22:54.568Z,12.60
2018-01-15T05:25:40.061Z,11.83
2018-01-15T05:28:09.305Z,12.63
2018-01-15T05:30:37.634Z,12.80
2018-01-15T05:33:05.286Z,14.00
2018-01-15T05:35:32.951Z,12.77
2018-01-15T05:38:00.521Z,11.90
2018-01-15T05:40:28.109Z,12.87
2018-01-15T05:42:55.672Z,12.60
2018-01-15T05:45:23.288Z,13.53
2018-01-15T05:47:50.869Z,14.40
2018-01-15T05:50:18.490Z,13.20
2018-01-15T05:52:46.041Z,13.80
2018-01-15T05:55:13.649Z,13.30
2018-01-15T05:57:41.199Z,14.03
2018-01-15T06:00:08.816Z,11.93
2018-01-15T06:02:37.163Z,14.60
2018-01-15T06:05:04.787Z,12.83
2018-01-15T06:07:32.413Z,13.30
2018-01-15T06:10:00.770Z,13.23
2018-01-15T06:12:28.364Z,12.80
2018-01-15T06:14:56.721Z,13.87
2018-01-15T06:17:24.345Z,14.20
2018-01-15T06:19:51.913Z,13.37
2018-01-15T06:22:19.514Z,13.40
2018-01-15T06:24:47.118Z,14.73
2018-01-15T06:27:14.695Z,13.70
2018-01-15T06:29:42.282Z,12.73
2018-01-15T06:32:09.845Z,14.20
2018-01-15T06:34:37.434Z,14.40
2018-01-15T06:37:05.185Z,13.60
2018-01-15T06:39:33.513Z,12.60
2018-01-15T06:42:01.115Z,14.60
2018-01-15T06:44:28.709Z,13.70
2018-01-15T06:46:56.266Z,12.60
2018-01-15T06:49:23.885Z,12.57
2018-01-15T06:51:51.466Z,12.77
2018-01-15T06:54:19.844Z,12.80
2018-01-15T06:56:47.392Z,12.60
2018-01-15T06:59:14.968Z,12.53
2018-01-15T07:01:43.284Z,12.33
2018-01-15T07:04:10.881Z,11.40
2018-01-15T07:06:38.500Z,11.90
2018-01-15T07:09:06.076Z,11.97
2018-01-15T07:11:33.648Z,11.33
2018-01-15T07:14:01.258Z,13.83
2018-01-15T07:16:29.627Z,12.20
2018-01-15T07:18:57.222Z,13.23
2018-01-15T07:21:24.805Z,11.93
2018-01-15T07:23:52.393Z,11.47
2018-01-15T07:26:19.967Z,11.53
2018-01-15T07:28:47.532Z,13.17
2018-01-15T07:31:15.176Z,12.50
2018-01-15T07:33:42.760Z,12.40
2018-01-15T07:36:10.329Z,12.57
2018-01-15T07:38:37.889Z,12.30
2018-01-15T07:41:06.250Z,12.80
2018-01-15T07:43:33.821Z,12.80
2018-01-15T07:46:01.416Z,11.37
2018-01-15T07:48:28.975Z,12.93
2018-01-15T07:50:56.562Z,13.30
2018-01-15T07:53:24.143Z,13.77
2018-01-15T07:55:51.713Z,13.90
2018-01-15T07:58:19.316Z,12.93
2018-01-15T08:00:46.873Z,12.57
2018-01-15T08:03:14.494Z,12.43
2018-01-15T08:05:42.085Z,13.20
2018-01-15T08:08:10.430Z,12.90
2018-01-15T08:10:37.976Z,11.40
2018-01-15T08:13:05.567Z,13.13
2018-01-15T08:15:33.184Z,11.70
2018-01-15T08:18:00.773Z,12.63
2018-01-15T08:20:28.340Z,12.30
2018-01-15T08:22:55.923Z,12.47
2018-01-15T08:25:24.245Z,12.10
2018-01-15T08:27:51.837Z,11.43
2018-01-15T08:30:19.402Z,11.97
2018-01-15T08:32:46.970Z,10.53
2018-01-15T08:35:14.780Z,11.10
2018-01-15T08:37:42.332Z,11.17
2018-01-15T08:40:09.912Z,10.23
2018-01-15T08:42:38.243Z,10.30
2018-01-15T08:45:06.573Z,9.40
2018-01-15T08:47:34.161Z,10.07
2018-01-15T08:50:01.732Z,10.97
2018-01-15T08:52:29.357Z,9.17
2018-01-15T08:54:56.993Z,10.87
2018-01-15T08:57:25.330Z,10.20
2018-01-15T08:59:52.875Z,10.83
2018-01-15T09:02:20.468Z,8.60
2018-01-15T09:04:48.873Z,10.70
2018-01-15T09:07:16.447Z,10.50
2018-01-15T09:09:44.003Z,11.27
2018-01-15T09:12:11.630Z,10.03
2018-01-15T09:14:39.187Z,8.93
2018-01-15T09:17:06.781Z,9.77
2018-01-15T09:19:34.420Z,12.10
2018-01-15T09:22:02.770Z,11.93
2018-01-15T09:24:30.336Z,10.03
2018-01-15T09:26:57.922Z,10.53
2018-01-15T09:29:26.253Z,10.17
2018-01-15T09:31:53.838Z,9.63
2018-01-15T09:34:21.381Z,10.47
2018-01-15T09:36:48.948Z,12.53
2018-01-15T09:39:16.614Z,10.73
2018-01-15T09:41:44.441Z,12.47
2018-01-15T09:44:12.056Z,11.50
2018-01-15T09:46:39.627Z,11.53
2018-01-15T09:49:07.961Z,11.50
2018-01-15T09:51:35.526Z,10.17
2018-01-15T09:54:03.133Z,11.17
2018-01-15T09:56:31.471Z,12.53
2018-01-15T09:58:59.054Z,10.27
2018-01-15T10:01:26.631Z,10.40
2018-01-15T10:03:55.039Z,10.23
2018-01-15T10:06:22.624Z,10.73
2018-01-15T10:08:50.200Z,11.23
2018-01-15T10:11:17.800Z,10.70
2018-01-15T10:13:46.157Z,8.87
2018-01-15T10:16:13.725Z,9.20
2018-01-15T10:18:41.347Z,10.83
2018-01-15T10:21:08.909Z,9.00
2018-01-15T10:23:36.514Z,9.27
2018-01-15T10:26:04.090Z,9.93
2018-01-15T10:28:32.553Z,10.00
2018-01-15T10:31:00.110Z,10.30
2018-01-15T10:33:27.699Z,9.00
2018-01-15T10:35:55.349Z,9.90
2018-01-15T10:38:23.685Z,8.90
2018-01-15T10:40:51.263Z,11.43
2018-01-15T10:43:18.864Z,9.77
2018-01-15T10:45:46.492Z,10.33
2018-01-15T10:48:14.081Z,10.00
2018-01-15T10:50:41.681Z,10.20
2018-01-15T10:53:09.260Z,10.23
2018-01-15T10:55:36.847Z,10.00
2018-01-15T10:58:05.185Z,9.53
2018-01-15T11:00:38.330Z,9.27
2018-01-15T11:03:06.671Z,8.87
2018-01-15T11:05:34.297Z,9.07
2018-01-15T11:08:01.956Z,10.73
2018-01-15T11:10:29.525Z,9.80
2018-01-15T11:12:57.252Z,10.47
2018-01-15T11:15:25.598Z,9.70
2018-01-15T11:17:53.163Z,9.30
2018-01-15T11:20:21.699Z,10.27
2018-01-15T11:22:49.273Z,9.93
2018-01-15T11:25:16.831Z,9.03
2018-01-15T11:27:45.196Z,10.20
2018-01-15T11:30:12.761Z,7.70
2018-01-15T11:32:40.332Z,9.57
2018-01-15T11:35:07.901Z,9.67
2018-01-15T11:37:35.486Z,10.33
2018-01-15T11:40:03.065Z,10.33
2018-01-15T11:42:30.674Z,9.30
2018-01-15T11:44:58.268Z,8.30
2018-01-15T11:47:25.818Z,8.73
2018-01-15T11:49:53.389Z,7.00
2018-01-15T11:52:20.976Z,8.30
2018-01-15T11:54:49.322Z,8.23
2018-01-15T11:57:17.567Z,8.77
2018-01-15T11:59:45.138Z,8.50
2018-01-15T12:02:12.714Z,8.03
2018-01-15T12:04:42.127Z,8.53
2018-01-15T12:07:09.704Z,9.63
2018-01-15T12:09:37.298Z,7.90
2018-01-15T12:12:05.627Z,8.07
2018-01-15T12:14:33.196Z,9.37
2018-01-15T12:17:00.909Z,9.27
2018-01-15T12:19:28.465Z,9.70
2018-01-15T12:21:56.048Z,9.50
2018-01-15T12:24:23.606Z,8.77
2018-01-15T12:26:51.195Z,10.00
2018-01-15T12:29:18.705Z,8.90
2018-01-15T12:31:46.281Z,8.77
2018-01-15T12:34:13.853Z,9.70
2018-01-15T12:36:41.577Z,8.70
2018-01-15T12:39:09.193Z,9.43
2018-01-15T12:41:36.769Z,9.83
2018-01-15T12:44:04.338Z,9.80
2018-01-15T12:46:31.927Z,9.70
2018-01-15T12:49:00.212Z,9.23
2018-01-15T12:51:28.508Z,8.93
2018-01-15T12:53:56.062Z,9.37
2018-01-15T12:56:23.688Z,9.80
2018-01-15T12:58:51.285Z,10.20
2018-01-15T13:01:18.876Z,9.20
2018-01-15T13:03:46.506Z,10.40
2018-01-15T13:06:20.247Z,11.47
2018-01-15T13:09:08.255Z,10.83
2018-01-15T13:11:35.832Z,10.93
2018-01-15T13:14:03.596Z,10.20
2018-01-15T13:16:31.225Z,10.97
2018-01-15T13:18:59.588Z,10.43
2018-01-15T13:21:27.982Z,10.90
2018-01-15T13:23:56.377Z,10.10
2018-01-15T13:26:25.772Z,10.53
2018-01-15T13:28:54.109Z,10.90
2018-01-15T13:31:21.719Z,10.33
2018-01-15T13:33:49.286Z,10.67
2018-01-15T13:36:16.880Z,11.30
2018-01-15T13:38:44.458Z,11.40
2018-01-15T13:41:12.053Z,10.90
2018-01-15T13:43:41.417Z,9.37
2018-01-15T13:46:09.266Z,10.13
2018-01-15T13:48:37.623Z,11.03
2018-01-15T13:51:05.208Z,10.60
2018-01-15T13:53:33.386Z,11.93
2018-01-15T13:56:01.777Z,9.10
2018-01-15T13:58:30.638Z,12.07
2018-01-15T14:00:59.442Z,9.83
2018-01-15T14:03:27.252Z,11.43
2018-01-15T14:05:54.922Z,9.80
2018-01-15T14:08:23.264Z,12.27
2018-01-15T14:10:51.664Z,9.27
2018-01-15T14:13:22.569Z,9.97
2018-01-15T14:15:50.152Z,10.87
2018-01-15T14:18:17.827Z,11.37
2018-01-15T14:20:45.394Z,11.60
2018-01-15T14:23:13.782Z,10.33
2018-01-15T14:25:42.123Z,10.73
2018-01-15T14:28:09.722Z,12.87
2018-01-15T14:30:38.069Z,11.30
2018-01-15T14:33:05.655Z,10.57
2018-01-15T14:35:33.318Z,11.30
2018-01-15T14:38:00.904Z,10.33
2018-01-15T14:40:28.469Z,11.10
2018-01-15T14:42:56.037Z,10.90
2018-01-15T14:45:23.603Z,9.47
2018-01-15T14:47:51.190Z,10.93
2018-01-15T14:50:18.762Z,9.57
2018-01-15T14:52:47.345Z,8.47
2018-01-15T14:55:15.722Z,8.70
2018-01-15T14:57:43.841Z,10.57
2018-01-15T15:00:11.436Z,9.47
2018-01-15T15:02:39.017Z,7.53
2018-01-15T15:05:06.596Z,9.37
2018-01-15T15:07:34.155Z,9.13
2018-01-15T15:10:01.762Z,8.60
2018-01-15T15:12:30.278Z,9.00
2018-01-15T15:14:57.871Z,7.90
2018-01-15T15:17:25.442Z,8.50
2018-01-15T15:19:53.760Z,8.10
2018-01-15T15:22:21.409Z,7.30
2018-01-15T15:24:48.962Z,6.73
2018-01-15T15:27:17.108Z,7.00
2018-01-15T15:29:45.430Z,7.07
2018-01-15T15:32:13.026Z,8.10
2018-01-15T15:34:40.633Z,7.43
2018-01-15T15:37:08.224Z,7.40
2018-01-15T15:39:35.792Z,7.10
2018-01-15T15:42:03.372Z,6.47
2018-01-15T15:44:30.988Z,6.47
2018-01-15T15:46:58.561Z,6.60
2018-01-15T15:49:26.114Z,7.00
2018-01-15T15:51:53.694Z,5.83
2018-01-15T15:54:21.385Z,7.40
2018-01-15T15:56:48.947Z,7.50
2018-01-15T15:59:16.526Z,6.30
2018-01-15T16:01:44.850Z,5.63
2018-01-15T16:04:12.442Z,6.90
2018-01-15T16:06:39.998Z,5.53
2018-01-15T16:09:07.574Z,5.73
2018-01-15T16:11:35.147Z,6.03
2018-01-15T16:14:03.545Z,5.70
2018-01-15T16:16:31.089Z,6.03
2018-01-15T16:18:59.454Z,5.67
2018-01-15T16:21:32.726Z,5.40
2018-01-15T16:24:00.282Z,5.63
2018-01-15T16:26:27.861Z,5.17
2018-01-15T16:28:55.477Z,7.10
2018-01-15T16:31:24.373Z,7.27
2018-01-15T16:33:52.244Z,6.60
2018-01-15T16:36:20.808Z,8.17
2018-01-15T16:38:48.459Z,5.43
2018-01-15T16:41:15.979Z,5.93
2018-01-15T16:43:44.233Z,5.13
2018-01-15T16:46:11.833Z,5.67
2018-01-15T16:48:39.385Z,6.73
2018-01-15T16:51:07.023Z,7.03
2018-01-15T16:53:34.640Z,6.37
2018-01-15T16:56:03.005Z,5.80
2018-01-15T16:58:32.053Z,6.03
2018-01-15T17:00:59.666Z,5.80
2018-01-15T17:03:27.293Z,5.30
2018-01-15T17:05:54.887Z,7.13
2018-01-15T17:08:23.297Z,5.20
2018-01-15T17:10:50.907Z,6.30
2018-01-15T17:13:19.265Z,5.83
2018-01-15T17:15:46.828Z,6.47
2018-01-15T17:18:14.459Z,6.43
2018-01-15T17:20:47.592Z,5.80
2018-01-15T17:23:15.304Z,6.43
2018-01-15T17:25:42.858Z,7.57
2018-01-15T17:28:11.238Z,7.00
2018-01-15T17:30:39.563Z,6.73
2018-01-15T17:33:07.252Z,6.27
2018-01-15T17:35:34.818Z,6.57
2018-01-15T17:38:02.425Z,6.13
2018-01-15T17:40:30.026Z,5.70
2018-01-15T17:42:57.626Z,6.20
2018-01-15T17:45:25.201Z,5.33
2018-01-15T17:47:53.794Z,5.23
2018-01-15T17:50:21.339Z,4.40
2018-01-15T17:52:49.799Z,5.20
2018-01-15T17:55:18.139Z,4.80
2018-01-15T17:57:45.713Z,6.20
2018-01-15T18:00:13.267Z,5.23
2018-01-15T18:02:42.592Z,4.50
2018-01-15T18:05:10.959Z,3.90
2018-01-15T18:07:38.512Z,5.60
2018-01-15T18:10:06.092Z,4.50
2018-01-15T18:12:33.677Z,3.80
2018-01-15T18:15:02.091Z,4.60
2018-01-15T18:17:29.765Z,3.83
2018-01-15T18:19:57.341Z,3.17
2018-01-15T18:22:24.912Z,3.20
2018-01-15T18:24:52.527Z,3.17
2018-01-15T18:27:20.105Z,16.33
2018-01-15T18:29:47.697Z,3.87
2018-01-15T18:32:15.260Z,6.70
2018-01-15T18:34:42.977Z,6.10
2018-01-15T18:37:10.566Z,4.60
2018-01-15T18:39:38.134Z,5.20
2018-01-15T18:42:05.748Z,5.40
2018-01-15T18:44:33.328Z,7.00
2018-01-15T18:47:00.911Z,5.30
2018-01-15T18:49:28.542Z,5.00
2018-01-15T18:51:56.207Z,6.80
2018-01-15T18:54:23.858Z,7.00
2018-01-15T18:56:51.458Z,4.37
2018-01-15T18:59:19.033Z,4.97
2018-01-15T19:01:46.616Z,4.23
2018-01-15T19:04:14.961Z,7.13
2018-01-15T19:06:42.554Z,2.90
2018-01-15T19:09:10.153Z,6.00
2018-01-15T19:11:37.763Z,6.43
2018-01-15T19:14:05.763Z,2.70
2018-01-15T19:16:34.122Z,2.57
2018-01-15T19:19:02.629Z,2.20
2018-01-15T19:21:30.207Z,1.80
2018-01-15T19:23:57.788Z,2.33
2018-01-15T19:26:25.341Z,2.77
2018-01-15T19:28:52.920Z,2.43
2018-01-15T19:31:20.480Z,2.10
2018-01-15T19:33:48.041Z,1.70
2018-01-15T19:36:21.090Z,2.73
2018-01-15T19:38:52.298Z,1.80
2018-01-15T19:41:34.838Z,2.40
2018-01-15T19:44:13.188Z,2.03
2018-01-15T19:58:39.767Z,2.33
2018-01-15T20:04:18.908Z,1.90
2018-01-15T20:06:52.865Z,2.20
2018-01-15T20:09:25.979Z,1.73
2018-01-15T20:11:53.537Z,1.70
2018-01-15T20:14:21.214Z,1.70
2018-01-15T20:16:49.141Z,1.80
2018-01-15T20:19:16.709Z,1.57
2018-01-15T20:21:44.298Z,1.80
2018-01-15T20:24:11.975Z,1.60
2018-01-15T20:26:39.548Z,2.07
2018-01-15T20:29:07.953Z,1.50
2018-01-15T20:31:35.557Z,1.83
2018-01-15T20:34:03.229Z,1.70
2018-01-15T20:36:30.804Z,1.40
2018-01-15T20:38:58.388Z,1.50
2018-01-15T20:41:25.972Z,1.87
2018-01-15T20:43:54.469Z,5.47
2018-01-15T20:46:23.012Z,1.90
2018-01-15T20:48:51.344Z,1.67
2018-01-15T20:51:18.979Z,1.33
2018-01-15T20:53:46.547Z,1.60
2018-01-15T20:56:15.062Z,5.93
2018-01-15T20:58:42.656Z,1.30
2018-01-15T21:01:10.993Z,1.30
2018-01-15T21:03:38.568Z,1.70
2018-01-15T21:06:06.202Z,2.33
2018-01-15T21:08:33.798Z,3.27
2018-01-15T21:11:02.029Z,2.73
2018-01-15T21:13:29.630Z,2.27
2018-01-15T21:15:57.262Z,1.83
2018-01-15T21:18:24.903Z,1.40
2018-01-15T21:20:52.668Z,1.57
2018-01-15T21:23:20.234Z,1.60
2018-01-15T21:25:47.804Z,3.03
2018-01-15T21:28:15.460Z,1.60
2018-01-15T21:30:43.017Z,1.80
2018-01-15T21:33:10.608Z,1.40
2018-01-15T21:35:38.199Z,1.40
2018-01-15T21:38:05.865Z,1.40
2018-01-15T21:40:34.204Z,1.37
2018-01-15T21:43:02.012Z,1.10
2018-01-15T21:45:29.685Z,1.20
2018-01-15T21:47:58.038Z,1.00
2018-01-15T21:50:25.655Z,1.27
2018-01-15T21:52:54.129Z,1.30
2018-01-15T21:55:21.702Z,1.10
2018-01-15T21:57:49.271Z,1.00
2018-01-15T22:00:16.890Z,1.23
2018-01-15T22:02:45.242Z,1.20
2018-01-15T22:05:12.798Z,1.10
2018-01-15T22:07:40.389Z,1.70
2018-01-15T22:10:08.717Z,1.27
2018-01-15T22:12:36.281Z,1.00
2018-01-15T22:15:03.837Z,1.50
2018-01-15T22:17:31.415Z,1.43
2018-01-15T22:19:59.028Z,1.20
2018-01-15T22:22:26.595Z,1.60
2018-01-15T22:24:54.188Z,1.70
2018-01-15T22:27:21.776Z,2.20
2018-01-15T22:29:49.356Z,2.23
2018-01-15T22:42:03.063Z,1.90
2018-01-15T22:44:31.385Z,1.93
2018-01-15T22:46:58.978Z,2.00
2018-01-15T22:49:26.579Z,1.53
2018-01-15T22:51:54.905Z,2.40
2018-01-15T22:54:22.521Z,2.83
2018-01-15T22:56:50.113Z,3.00
2018-01-15T22:59:17.692Z,3.13
2018-01-15T23:01:45.274Z,3.17
2018-01-15T23:04:12.824Z,3.00
2018-01-15T23:06:40.405Z,3.60
2018-01-15T23:09:08.766Z,3.50
2018-01-15T23:11:36.474Z,3.43
2018-01-15T23:14:04.030Z,3.37
2018-01-15T23:16:31.641Z,4.00
2018-01-15T23:19:00.155Z,3.30
2018-01-15T23:21:28.487Z,3.57
2018-01-15T23:23:56.083Z,3.50
2018-01-15T23:26:23.637Z,3.40
2018-01-15T23:28:51.207Z,3.90
2018-01-15T23:31:18.781Z,4.33
2018-01-15T23:33:46.365Z,5.03
2018-01-15T23:36:13.913Z,4.20
2018-01-15T23:38:41.493Z,3.90
2018-01-15T23:41:09.037Z,3.23
2018-01-15T23:43:36.617Z,3.80
2018-01-15T23:46:04.172Z,3.33
2018-01-15T23:48:31.750Z,3.10
2018-01-15T23:50:59.304Z,3.20
2018-01-15T23:53:26.873Z,2.70
2018-01-15T23:55:54.460Z,2.97
2018-01-15T23:58:22.026Z,2.43
